sensor_id;sensor_type;location;lat;lon;timestamp;temperature;humidity
7654;DHT22;3869;48.406;10.774;2022-09-17T00:01:25;11.40;99.90
7654;DHT22;3869;48.406;10.774;2022-09-17T00:03:55;11.40;99.90
7654;DHT22;3869;48.406;10.774;2022-09-17T00:06:26;11.40;99.90
7654;DHT22;3869;48.406;10.774;2022-09-17T00:08:55;11.40;99.90
7654;DHT22;3869;48.406;10.774;2022-09-17T00:11:27;11.40;99.90
7654;DHT22;3869;48.406;10.774;2022-09-17T00:13:58;11.50;99.90
7654;DHT22;3869;48.406;10.774;2022-09-17T00:16:29;11.50;99.90
7654;DHT22;3869;48.406;10.774;2022-09-17T00:18:58;11.50;99.90
7654;DHT22;3869;48.406;10.774;2022-09-17T00:21:27;11.50;99.90
7654;DHT22;3869;48.406;10.774;2022-09-17T00:23:57;11.50;99.90
7654;DHT22;3869;48.406;10.774;2022-09-17T00:26:27;11.50;99.90
7654;DHT22;3869;48.406;10.774;2022-09-17T00:28:56;11.50;99.90
7654;DHT22;3869;48.406;10.774;2022-09-17T00:31:26;11.50;99.90
7654;DHT22;3869;48.406;10.774;2022-09-17T00:33:54;11.50;99.90
7654;DHT22;3869;48.406;10.774;2022-09-17T00:36:22;11.50;99.90
7654;DHT22;3869;48.406;10.774;2022-09-17T00:38:50;11.40;99.90
7654;DHT22;3869;48.406;10.774;2022-09-17T00:41:21;11.30;99.90
7654;DHT22;3869;48.406;10.774;2022-09-17T00:43:52;11.20;99.90
7654;DHT22;3869;48.406;10.774;2022-09-17T00:46:25;11.20;99.90
7654;DHT22;3869;48.406;10.774;2022-09-17T00:48:58;11.30;99.90
7654;DHT22;3869;48.406;10.774;2022-09-17T00:51:31;11.30;99.90
7654;DHT22;3869;48.406;10.774;2022-09-17T00:54:02;11.30;99.90
7654;DHT22;3869;48.406;10.774;2022-09-17T00:56:34;11.30;99.90
7654;DHT22;3869;48.406;10.774;2022-09-17T00:59:03;11.30;99.90
7654;DHT22;3869;48.406;10.774;2022-09-17T01:01:32;11.40;99.90
7654;DHT22;3869;48.406;10.774;2022-09-17T01:04:00;11.50;99.90
7654;DHT22;3869;48.406;10.774;2022-09-17T01:06:33;11.50;99.90
7654;DHT22;3869;48.406;10.774;2022-09-17T01:09:18;11.50;99.90
7654;DHT22;3869;48.406;10.774;2022-09-17T01:12:05;11.50;99.90
7654;DHT22;3869;48.406;10.774;2022-09-17T01:14:59;11.50;99.90
7654;DHT22;3869;48.406;10.774;2022-09-17T01:17:35;11.50;99.90
7654;DHT22;3869;48.406;10.774;2022-09-17T01:23:32;11.50;99.90
7654;DHT22;3869;48.406;10.774;2022-09-17T01:26:22;11.40;99.90
7654;DHT22;3869;48.406;10.774;2022-09-17T01:28:58;11.40;99.90
7654;DHT22;3869;48.406;10.774;2022-09-17T01:31:41;11.50;99.90
7654;DHT22;3869;48.406;10.774;2022-09-17T01:34:21;11.40;99.90
7654;DHT22;3869;48.406;10.774;2022-09-17T01:37:00;11.40;99.90
7654;DHT22;3869;48.406;10.774;2022-09-17T01:39:34;11.40;99.90
7654;DHT22;3869;48.406;10.774;2022-09-17T01:42:13;11.40;99.90
7654;DHT22;3869;48.406;10.774;2022-09-17T01:44:47;11.40;99.90
7654;DHT22;3869;48.406;10.774;2022-09-17T01:47:22;11.40;99.90
7654;DHT22;3869;48.406;10.774;2022-09-17T01:49:53;11.20;99.90
7654;DHT22;3869;48.406;10.774;2022-09-17T01:52:24;11.20;99.90
7654;DHT22;3869;48.406;10.774;2022-09-17T01:54:56;11.20;99.90
7654;DHT22;3869;48.406;10.774;2022-09-17T01:57:28;11.20;99.90
7654;DHT22;3869;48.406;10.774;2022-09-17T02:00:03;11.20;99.90
7654;DHT22;3869;48.406;10.774;2022-09-17T02:02:35;11.30;99.90
7654;DHT22;3869;48.406;10.774;2022-09-17T02:05:07;11.30;99.90
7654;DHT22;3869;48.406;10.774;2022-09-17T02:07:39;11.30;99.90
7654;DHT22;3869;48.406;10.774;2022-09-17T02:10:10;11.30;99.90
7654;DHT22;3869;48.406;10.774;2022-09-17T02:12:42;11.20;99.90
7654;DHT22;3869;48.406;10.774;2022-09-17T02:15:16;11.20;99.90
7654;DHT22;3869;48.406;10.774;2022-09-17T02:17:50;11.20;99.90
7654;DHT22;3869;48.406;10.774;2022-09-17T02:20:25;11.20;99.90
7654;DHT22;3869;48.406;10.774;2022-09-17T02:22:58;11.20;99.90
7654;DHT22;3869;48.406;10.774;2022-09-17T02:25:33;11.10;99.90
7654;DHT22;3869;48.406;10.774;2022-09-17T02:28:05;11.10;99.90
7654;DHT22;3869;48.406;10.774;2022-09-17T02:30:34;11.10;99.90
7654;DHT22;3869;48.406;10.774;2022-09-17T02:33:06;11.00;99.90
7654;DHT22;3869;48.406;10.774;2022-09-17T02:35:36;11.00;99.90
7654;DHT22;3869;48.406;10.774;2022-09-17T02:38:05;11.00;99.90
7654;DHT22;3869;48.406;10.774;2022-09-17T02:40:38;11.00;99.90
7654;DHT22;3869;48.406;10.774;2022-09-17T02:43:14;11.00;99.90
7654;DHT22;3869;48.406;10.774;2022-09-17T02:45:55;11.00;99.90
7654;DHT22;3869;48.406;10.774;2022-09-17T02:48:54;11.00;99.90
7654;DHT22;3869;48.406;10.774;2022-09-17T02:51:30;11.00;99.90
7654;DHT22;3869;48.406;10.774;2022-09-17T02:54:06;11.00;99.90
7654;DHT22;3869;48.406;10.774;2022-09-17T02:56:42;10.90;99.90
7654;DHT22;3869;48.406;10.774;2022-09-17T02:59:18;11.00;99.90
7654;DHT22;3869;48.406;10.774;2022-09-17T03:01:51;11.00;99.90
7654;DHT22;3869;48.406;10.774;2022-09-17T03:04:26;11.00;99.90
7654;DHT22;3869;48.406;10.774;2022-09-17T03:06:55;10.90;99.90
7654;DHT22;3869;48.406;10.774;2022-09-17T03:09:25;10.80;99.90
7654;DHT22;3869;48.406;10.774;2022-09-17T03:11:53;10.80;99.90
7654;DHT22;3869;48.406;10.774;2022-09-17T03:14:21;10.70;99.90
7654;DHT22;3869;48.406;10.774;2022-09-17T03:16:49;10.70;99.90
7654;DHT22;3869;48.406;10.774;2022-09-17T03:19:17;10.70;99.90
7654;DHT22;3869;48.406;10.774;2022-09-17T03:21:46;10.60;99.90
7654;DHT22;3869;48.406;10.774;2022-09-17T03:24:14;10.60;99.90
7654;DHT22;3869;48.406;10.774;2022-09-17T03:26:42;10.60;99.90
7654;DHT22;3869;48.406;10.774;2022-09-17T03:29:10;10.60;99.90
7654;DHT22;3869;48.406;10.774;2022-09-17T03:31:37;10.60;99.90
7654;DHT22;3869;48.406;10.774;2022-09-17T03:34:06;10.60;99.90
7654;DHT22;3869;48.406;10.774;2022-09-17T03:36:34;10.60;99.90
7654;DHT22;3869;48.406;10.774;2022-09-17T03:39:03;10.50;99.90
7654;DHT22;3869;48.406;10.774;2022-09-17T03:41:31;10.50;99.90
7654;DHT22;3869;48.406;10.774;2022-09-17T03:43:59;10.60;99.90
7654;DHT22;3869;48.406;10.774;2022-09-17T03:46:27;10.50;99.90
7654;DHT22;3869;48.406;10.774;2022-09-17T03:48:55;10.50;99.90
7654;DHT22;3869;48.406;10.774;2022-09-17T03:51:23;10.50;99.90
7654;DHT22;3869;48.406;10.774;2022-09-17T03:53:51;10.50;99.90
7654;DHT22;3869;48.406;10.774;2022-09-17T03:56:20;10.50;99.90
7654;DHT22;3869;48.406;10.774;2022-09-17T03:58:48;10.50;99.90
7654;DHT22;3869;48.406;10.774;2022-09-17T04:01:16;10.50;99.90
7654;DHT22;3869;48.406;10.774;2022-09-17T04:03:44;10.60;99.90
7654;DHT22;3869;48.406;10.774;2022-09-17T04:06:12;10.60;99.90
7654;DHT22;3869;48.406;10.774;2022-09-17T04:08:40;10.60;99.90
7654;DHT22;3869;48.406;10.774;2022-09-17T04:11:09;10.60;99.90
7654;DHT22;3869;48.406;10.774;2022-09-17T04:13:38;10.60;99.90
7654;DHT22;3869;48.406;10.774;2022-09-17T04:16:06;10.60;99.90
7654;DHT22;3869;48.406;10.774;2022-09-17T04:18:35;10.50;99.90
7654;DHT22;3869;48.406;10.774;2022-09-17T04:21:03;10.50;99.90
7654;DHT22;3869;48.406;10.774;2022-09-17T04:23:31;10.50;99.90
7654;DHT22;3869;48.406;10.774;2022-09-17T04:25:59;10.40;99.90
7654;DHT22;3869;48.406;10.774;2022-09-17T04:28:27;10.40;99.90
7654;DHT22;3869;48.406;10.774;2022-09-17T04:30:56;10.30;99.90
7654;DHT22;3869;48.406;10.774;2022-09-17T04:33:24;10.30;99.90
7654;DHT22;3869;48.406;10.774;2022-09-17T04:35:52;10.30;99.90
7654;DHT22;3869;48.406;10.774;2022-09-17T04:38:20;10.40;99.90
7654;DHT22;3869;48.406;10.774;2022-09-17T04:40:48;10.40;99.90
7654;DHT22;3869;48.406;10.774;2022-09-17T04:43:17;10.30;99.90
7654;DHT22;3869;48.406;10.774;2022-09-17T04:45:45;10.30;99.90
7654;DHT22;3869;48.406;10.774;2022-09-17T04:48:15;10.30;99.90
7654;DHT22;3869;48.406;10.774;2022-09-17T04:50:43;10.30;99.90
7654;DHT22;3869;48.406;10.774;2022-09-17T04:53:11;10.30;99.90
7654;DHT22;3869;48.406;10.774;2022-09-17T04:55:39;10.40;99.90
7654;DHT22;3869;48.406;10.774;2022-09-17T04:58:07;10.40;99.90
7654;DHT22;3869;48.406;10.774;2022-09-17T05:00:35;10.40;99.90
7654;DHT22;3869;48.406;10.774;2022-09-17T05:03:04;10.40;99.90
7654;DHT22;3869;48.406;10.774;2022-09-17T05:05:33;10.40;99.90
7654;DHT22;3869;48.406;10.774;2022-09-17T05:08:01;10.40;99.90
7654;DHT22;3869;48.406;10.774;2022-09-17T05:10:29;10.30;99.90
7654;DHT22;3869;48.406;10.774;2022-09-17T05:12:57;10.30;99.90
7654;DHT22;3869;48.406;10.774;2022-09-17T05:15:25;10.30;99.90
7654;DHT22;3869;48.406;10.774;2022-09-17T05:17:54;10.40;99.90
7654;DHT22;3869;48.406;10.774;2022-09-17T05:20:22;10.50;99.90
7654;DHT22;3869;48.406;10.774;2022-09-17T05:22:51;10.70;99.90
7654;DHT22;3869;48.406;10.774;2022-09-17T05:25:21;10.80;99.90
7654;DHT22;3869;48.406;10.774;2022-09-17T05:27:51;10.90;99.90
7654;DHT22;3869;48.406;10.774;2022-09-17T05:30:19;11.00;99.90
7654;DHT22;3869;48.406;10.774;2022-09-17T05:32:47;11.00;99.90
7654;DHT22;3869;48.406;10.774;2022-09-17T05:35:16;11.00;99.90
7654;DHT22;3869;48.406;10.774;2022-09-17T05:37:44;11.00;99.90
7654;DHT22;3869;48.406;10.774;2022-09-17T05:40:13;11.10;99.90
7654;DHT22;3869;48.406;10.774;2022-09-17T05:42:42;11.10;99.90
7654;DHT22;3869;48.406;10.774;2022-09-17T05:45:10;11.20;99.90
7654;DHT22;3869;48.406;10.774;2022-09-17T05:47:38;11.20;99.90
7654;DHT22;3869;48.406;10.774;2022-09-17T05:50:06;11.30;99.90
7654;DHT22;3869;48.406;10.774;2022-09-17T05:52:34;11.20;99.90
7654;DHT22;3869;48.406;10.774;2022-09-17T05:55:03;11.20;99.90
7654;DHT22;3869;48.406;10.774;2022-09-17T05:57:32;11.20;99.90
7654;DHT22;3869;48.406;10.774;2022-09-17T06:00:00;11.20;99.90
7654;DHT22;3869;48.406;10.774;2022-09-17T06:02:28;11.30;99.90
7654;DHT22;3869;48.406;10.774;2022-09-17T06:04:56;11.40;99.90
7654;DHT22;3869;48.406;10.774;2022-09-17T06:07:27;11.40;99.90
7654;DHT22;3869;48.406;10.774;2022-09-17T06:09:55;11.40;99.90
7654;DHT22;3869;48.406;10.774;2022-09-17T06:12:23;11.30;99.90
7654;DHT22;3869;48.406;10.774;2022-09-17T06:14:52;11.20;99.90
7654;DHT22;3869;48.406;10.774;2022-09-17T06:17:20;11.20;99.90
7654;DHT22;3869;48.406;10.774;2022-09-17T06:19:48;11.10;99.90
7654;DHT22;3869;48.406;10.774;2022-09-17T06:22:17;11.10;99.90
7654;DHT22;3869;48.406;10.774;2022-09-17T06:24:45;11.10;99.90
7654;DHT22;3869;48.406;10.774;2022-09-17T06:27:13;11.10;99.90
7654;DHT22;3869;48.406;10.774;2022-09-17T06:29:41;11.10;99.90
7654;DHT22;3869;48.406;10.774;2022-09-17T06:32:11;11.10;99.90
7654;DHT22;3869;48.406;10.774;2022-09-17T06:34:41;10.90;99.90
7654;DHT22;3869;48.406;10.774;2022-09-17T06:37:09;10.90;99.90
7654;DHT22;3869;48.406;10.774;2022-09-17T06:39:37;10.90;99.90
7654;DHT22;3869;48.406;10.774;2022-09-17T06:42:05;10.80;99.90
7654;DHT22;3869;48.406;10.774;2022-09-17T06:44:33;10.70;99.90
7654;DHT22;3869;48.406;10.774;2022-09-17T06:47:01;10.70;99.90
7654;DHT22;3869;48.406;10.774;2022-09-17T06:49:30;10.70;99.90
7654;DHT22;3869;48.406;10.774;2022-09-17T06:51:58;10.80;99.90
7654;DHT22;3869;48.406;10.774;2022-09-17T06:54:27;11.00;99.90
7654;DHT22;3869;48.406;10.774;2022-09-17T06:56:55;11.20;99.90
7654;DHT22;3869;48.406;10.774;2022-09-17T06:59:23;11.30;99.90
7654;DHT22;3869;48.406;10.774;2022-09-17T07:01:52;11.30;99.90
7654;DHT22;3869;48.406;10.774;2022-09-17T07:04:20;11.40;99.90
7654;DHT22;3869;48.406;10.774;2022-09-17T07:06:49;11.50;99.90
7654;DHT22;3869;48.406;10.774;2022-09-17T07:09:17;11.50;99.90
7654;DHT22;3869;48.406;10.774;2022-09-17T07:11:45;11.30;99.90
7654;DHT22;3869;48.406;10.774;2022-09-17T07:14:13;11.40;99.90
7654;DHT22;3869;48.406;10.774;2022-09-17T07:16:41;11.30;99.90
7654;DHT22;3869;48.406;10.774;2022-09-17T07:19:09;11.30;99.90
7654;DHT22;3869;48.406;10.774;2022-09-17T07:21:40;11.30;99.90
7654;DHT22;3869;48.406;10.774;2022-09-17T07:24:09;11.20;99.90
7654;DHT22;3869;48.406;10.774;2022-09-17T07:26:37;11.20;99.90
7654;DHT22;3869;48.406;10.774;2022-09-17T07:29:05;11.20;99.90
7654;DHT22;3869;48.406;10.774;2022-09-17T07:31:33;11.30;99.90
7654;DHT22;3869;48.406;10.774;2022-09-17T07:34:01;11.30;99.90
7654;DHT22;3869;48.406;10.774;2022-09-17T07:36:29;11.30;99.90
7654;DHT22;3869;48.406;10.774;2022-09-17T07:38:57;11.20;99.90
7654;DHT22;3869;48.406;10.774;2022-09-17T07:41:27;11.30;99.90
7654;DHT22;3869;48.406;10.774;2022-09-17T07:43:55;11.30;99.90
7654;DHT22;3869;48.406;10.774;2022-09-17T07:46:23;11.30;99.90
7654;DHT22;3869;48.406;10.774;2022-09-17T07:48:51;11.30;99.90
7654;DHT22;3869;48.406;10.774;2022-09-17T07:51:20;11.30;99.90
7654;DHT22;3869;48.406;10.774;2022-09-17T07:53:50;11.30;99.90
7654;DHT22;3869;48.406;10.774;2022-09-17T07:56:18;11.40;99.90
7654;DHT22;3869;48.406;10.774;2022-09-17T07:58:48;11.40;99.90
7654;DHT22;3869;48.406;10.774;2022-09-17T08:01:17;11.40;99.90
7654;DHT22;3869;48.406;10.774;2022-09-17T08:03:48;11.40;99.90
7654;DHT22;3869;48.406;10.774;2022-09-17T08:06:18;11.30;99.90
7654;DHT22;3869;48.406;10.774;2022-09-17T08:08:47;11.30;99.90
7654;DHT22;3869;48.406;10.774;2022-09-17T08:11:17;11.20;99.90
7654;DHT22;3869;48.406;10.774;2022-09-17T08:14:09;11.10;99.90
7654;DHT22;3869;48.406;10.774;2022-09-17T08:16:38;11.10;99.90
7654;DHT22;3869;48.406;10.774;2022-09-17T08:19:06;11.20;99.90
7654;DHT22;3869;48.406;10.774;2022-09-17T08:21:36;11.30;99.90
7654;DHT22;3869;48.406;10.774;2022-09-17T08:24:05;11.30;99.90
7654;DHT22;3869;48.406;10.774;2022-09-17T08:26:33;11.30;99.90
7654;DHT22;3869;48.406;10.774;2022-09-17T08:29:01;11.40;99.90
7654;DHT22;3869;48.406;10.774;2022-09-17T08:31:31;11.50;99.90
7654;DHT22;3869;48.406;10.774;2022-09-17T08:33:59;11.50;99.90
7654;DHT22;3869;48.406;10.774;2022-09-17T08:36:27;11.50;99.90
7654;DHT22;3869;48.406;10.774;2022-09-17T08:38:55;11.50;99.90
7654;DHT22;3869;48.406;10.774;2022-09-17T08:41:32;11.50;99.90
7654;DHT22;3869;48.406;10.774;2022-09-17T08:44:14;11.50;99.90
7654;DHT22;3869;48.406;10.774;2022-09-17T08:46:47;11.60;99.90
7654;DHT22;3869;48.406;10.774;2022-09-17T08:49:24;11.70;99.90
7654;DHT22;3869;48.406;10.774;2022-09-17T08:52:10;11.80;99.90
7654;DHT22;3869;48.406;10.774;2022-09-17T08:54:47;11.90;99.90
7654;DHT22;3869;48.406;10.774;2022-09-17T08:57:24;11.70;99.90
7654;DHT22;3869;48.406;10.774;2022-09-17T08:59:59;11.60;99.90
7654;DHT22;3869;48.406;10.774;2022-09-17T09:02:42;11.60;99.90
7654;DHT22;3869;48.406;10.774;2022-09-17T09:05:14;11.50;99.90
7654;DHT22;3869;48.406;10.774;2022-09-17T09:07:47;11.60;99.90
7654;DHT22;3869;48.406;10.774;2022-09-17T09:10:18;11.50;99.90
7654;DHT22;3869;48.406;10.774;2022-09-17T09:12:49;11.50;99.90
7654;DHT22;3869;48.406;10.774;2022-09-17T09:15:26;11.50;99.90
7654;DHT22;3869;48.406;10.774;2022-09-17T09:18:02;11.60;99.90
7654;DHT22;3869;48.406;10.774;2022-09-17T09:20:39;11.60;99.90
7654;DHT22;3869;48.406;10.774;2022-09-17T09:23:14;11.70;99.90
7654;DHT22;3869;48.406;10.774;2022-09-17T09:25:54;11.60;99.90
7654;DHT22;3869;48.406;10.774;2022-09-17T09:28:36;11.70;99.90
7654;DHT22;3869;48.406;10.774;2022-09-17T09:31:15;11.70;99.90
7654;DHT22;3869;48.406;10.774;2022-09-17T09:33:50;11.60;99.90
7654;DHT22;3869;48.406;10.774;2022-09-17T09:36:18;11.50;99.90
7654;DHT22;3869;48.406;10.774;2022-09-17T09:38:52;11.50;99.90
7654;DHT22;3869;48.406;10.774;2022-09-17T09:41:27;11.40;99.90
7654;DHT22;3869;48.406;10.774;2022-09-17T09:44:00;11.50;99.90
7654;DHT22;3869;48.406;10.774;2022-09-17T09:46:57;11.60;99.90
7654;DHT22;3869;48.406;10.774;2022-09-17T09:49:46;11.60;99.90
7654;DHT22;3869;48.406;10.774;2022-09-17T09:52:31;11.60;99.90
7654;DHT22;3869;48.406;10.774;2022-09-17T09:55:19;11.60;99.90
7654;DHT22;3869;48.406;10.774;2022-09-17T09:57:55;11.60;99.90
7654;DHT22;3869;48.406;10.774;2022-09-17T10:00:28;11.60;99.90
7654;DHT22;3869;48.406;10.774;2022-09-17T10:03:00;11.60;99.90
7654;DHT22;3869;48.406;10.774;2022-09-17T10:05:31;11.60;99.90
7654;DHT22;3869;48.406;10.774;2022-09-17T10:07:59;11.60;99.90
7654;DHT22;3869;48.406;10.774;2022-09-17T10:10:27;11.50;99.90
7654;DHT22;3869;48.406;10.774;2022-09-17T10:13:06;11.50;99.90
7654;DHT22;3869;48.406;10.774;2022-09-17T10:15:34;11.50;99.90
7654;DHT22;3869;48.406;10.774;2022-09-17T10:18:15;11.40;99.90
7654;DHT22;3869;48.406;10.774;2022-09-17T10:20:56;11.30;99.90
7654;DHT22;3869;48.406;10.774;2022-09-17T10:23:27;11.30;99.90
7654;DHT22;3869;48.406;10.774;2022-09-17T10:25:55;11.30;99.90
7654;DHT22;3869;48.406;10.774;2022-09-17T10:28:38;11.30;99.90
7654;DHT22;3869;48.406;10.774;2022-09-17T10:31:10;11.20;99.90
7654;DHT22;3869;48.406;10.774;2022-09-17T10:33:49;11.20;99.90
7654;DHT22;3869;48.406;10.774;2022-09-17T10:36:36;11.30;99.90
7654;DHT22;3869;48.406;10.774;2022-09-17T10:39:24;11.30;99.90
7654;DHT22;3869;48.406;10.774;2022-09-17T10:41:55;11.40;99.90
7654;DHT22;3869;48.406;10.774;2022-09-17T10:44:24;11.50;99.90
7654;DHT22;3869;48.406;10.774;2022-09-17T10:46:53;11.50;99.90
7654;DHT22;3869;48.406;10.774;2022-09-17T10:49:33;11.60;99.90
7654;DHT22;3869;48.406;10.774;2022-09-17T10:52:07;11.70;99.90
7654;DHT22;3869;48.406;10.774;2022-09-17T10:54:49;11.80;99.90
7654;DHT22;3869;48.406;10.774;2022-09-17T10:57:30;11.90;99.90
7654;DHT22;3869;48.406;10.774;2022-09-17T11:00:09;11.90;99.90
7654;DHT22;3869;48.406;10.774;2022-09-17T11:03:08;11.90;99.90
7654;DHT22;3869;48.406;10.774;2022-09-17T11:05:53;12.00;99.90
7654;DHT22;3869;48.406;10.774;2022-09-17T11:08:33;12.00;99.90
7654;DHT22;3869;48.406;10.774;2022-09-17T11:11:09;12.10;99.90
7654;DHT22;3869;48.406;10.774;2022-09-17T11:13:44;12.20;99.90
7654;DHT22;3869;48.406;10.774;2022-09-17T11:16:26;12.30;99.90
7654;DHT22;3869;48.406;10.774;2022-09-17T11:19:04;12.30;99.90
7654;DHT22;3869;48.406;10.774;2022-09-17T11:21:41;12.40;99.90
7654;DHT22;3869;48.406;10.774;2022-09-17T11:24:31;12.40;99.90
7654;DHT22;3869;48.406;10.774;2022-09-17T11:27:11;12.50;99.90
7654;DHT22;3869;48.406;10.774;2022-09-17T11:29:55;12.60;99.90
7654;DHT22;3869;48.406;10.774;2022-09-17T11:32:39;12.70;99.90
7654;DHT22;3869;48.406;10.774;2022-09-17T11:35:11;12.70;99.90
7654;DHT22;3869;48.406;10.774;2022-09-17T11:37:47;12.70;99.90
7654;DHT22;3869;48.406;10.774;2022-09-17T11:40:22;12.80;99.90
7654;DHT22;3869;48.406;10.774;2022-09-17T11:42:53;12.70;99.90
7654;DHT22;3869;48.406;10.774;2022-09-17T11:45:26;12.50;99.90
7654;DHT22;3869;48.406;10.774;2022-09-17T11:47:58;12.50;99.90
7654;DHT22;3869;48.406;10.774;2022-09-17T11:50:30;12.60;99.90
7654;DHT22;3869;48.406;10.774;2022-09-17T11:53:07;12.60;99.90
7654;DHT22;3869;48.406;10.774;2022-09-17T11:55:43;12.60;99.90
7654;DHT22;3869;48.406;10.774;2022-09-17T11:58:15;12.60;99.90
7654;DHT22;3869;48.406;10.774;2022-09-17T12:00:51;12.60;99.90
7654;DHT22;3869;48.406;10.774;2022-09-17T12:03:26;12.60;99.90
7654;DHT22;3869;48.406;10.774;2022-09-17T12:05:58;12.60;99.90
7654;DHT22;3869;48.406;10.774;2022-09-17T12:08:38;12.70;99.90
7654;DHT22;3869;48.406;10.774;2022-09-17T12:11:13;12.60;99.90
7654;DHT22;3869;48.406;10.774;2022-09-17T12:13:45;12.40;99.90
7654;DHT22;3869;48.406;10.774;2022-09-17T12:16:19;12.50;99.90
7654;DHT22;3869;48.406;10.774;2022-09-17T12:18:58;12.50;99.90
7654;DHT22;3869;48.406;10.774;2022-09-17T12:21:32;12.70;99.90
7654;DHT22;3869;48.406;10.774;2022-09-17T12:24:09;12.70;99.90
7654;DHT22;3869;48.406;10.774;2022-09-17T12:26:54;12.80;99.90
7654;DHT22;3869;48.406;10.774;2022-09-17T12:33:04;12.70;99.90
7654;DHT22;3869;48.406;10.774;2022-09-17T12:35:46;12.60;99.90
7654;DHT22;3869;48.406;10.774;2022-09-17T12:38:54;12.60;99.90
7654;DHT22;3869;48.406;10.774;2022-09-17T12:41:37;12.50;99.90
7654;DHT22;3869;48.406;10.774;2022-09-17T12:44:42;12.50;99.90
7654;DHT22;3869;48.406;10.774;2022-09-17T12:47:32;12.60;99.90
7654;DHT22;3869;48.406;10.774;2022-09-17T12:50:16;12.70;99.90
7654;DHT22;3869;48.406;10.774;2022-09-17T12:52:56;12.90;99.90
7654;DHT22;3869;48.406;10.774;2022-09-17T12:55:54;13.00;99.90
7654;DHT22;3869;48.406;10.774;2022-09-17T12:58:32;13.10;99.90
7654;DHT22;3869;48.406;10.774;2022-09-17T13:01:09;13.30;99.90
7654;DHT22;3869;48.406;10.774;2022-09-17T13:03:43;13.30;99.90
7654;DHT22;3869;48.406;10.774;2022-09-17T13:12:35;13.80;99.90
7654;DHT22;3869;48.406;10.774;2022-09-17T13:18:16;13.90;99.90
7654;DHT22;3869;48.406;10.774;2022-09-17T13:20:59;13.80;99.90
7654;DHT22;3869;48.406;10.774;2022-09-17T13:23:33;13.60;99.90
7654;DHT22;3869;48.406;10.774;2022-09-17T13:26:02;13.50;99.90
7654;DHT22;3869;48.406;10.774;2022-09-17T13:28:38;13.40;99.90
7654;DHT22;3869;48.406;10.774;2022-09-17T13:31:19;13.40;99.90
7654;DHT22;3869;48.406;10.774;2022-09-17T13:33:53;13.30;99.90
7654;DHT22;3869;48.406;10.774;2022-09-17T13:36:45;13.30;99.90
7654;DHT22;3869;48.406;10.774;2022-09-17T13:39:37;13.20;99.90
7654;DHT22;3869;48.406;10.774;2022-09-17T13:42:12;13.10;99.90
7654;DHT22;3869;48.406;10.774;2022-09-17T13:44:43;13.10;99.90
7654;DHT22;3869;48.406;10.774;2022-09-17T13:47:18;12.90;99.90
7654;DHT22;3869;48.406;10.774;2022-09-17T13:49:54;12.80;99.90
7654;DHT22;3869;48.406;10.774;2022-09-17T13:52:37;12.80;99.90
7654;DHT22;3869;48.406;10.774;2022-09-17T13:55:07;12.80;99.90
7654;DHT22;3869;48.406;10.774;2022-09-17T13:57:48;12.70;99.90
7654;DHT22;3869;48.406;10.774;2022-09-17T14:00:45;12.70;99.90
7654;DHT22;3869;48.406;10.774;2022-09-17T14:03:54;12.70;99.90
7654;DHT22;3869;48.406;10.774;2022-09-17T14:06:49;12.80;99.90
7654;DHT22;3869;48.406;10.774;2022-09-17T14:09:34;12.80;99.90
7654;DHT22;3869;48.406;10.774;2022-09-17T14:15:34;12.60;99.90
7654;DHT22;3869;48.406;10.774;2022-09-17T14:18:34;12.50;99.90
7654;DHT22;3869;48.406;10.774;2022-09-17T14:21:10;12.50;99.90
7654;DHT22;3869;48.406;10.774;2022-09-17T14:23:44;12.50;99.90
7654;DHT22;3869;48.406;10.774;2022-09-17T14:26:18;12.50;99.90
7654;DHT22;3869;48.406;10.774;2022-09-17T14:28:58;12.50;99.90
7654;DHT22;3869;48.406;10.774;2022-09-17T14:31:32;12.50;99.90
7654;DHT22;3869;48.406;10.774;2022-09-17T14:34:04;12.50;99.90
7654;DHT22;3869;48.406;10.774;2022-09-17T14:36:34;12.50;99.90
7654;DHT22;3869;48.406;10.774;2022-09-17T14:39:09;12.40;99.90
7654;DHT22;3869;48.406;10.774;2022-09-17T14:41:40;12.40;99.90
7654;DHT22;3869;48.406;10.774;2022-09-17T14:44:12;12.50;99.90
7654;DHT22;3869;48.406;10.774;2022-09-17T14:46:45;12.50;99.90
7654;DHT22;3869;48.406;10.774;2022-09-17T14:49:20;12.50;99.90
7654;DHT22;3869;48.406;10.774;2022-09-17T14:51:49;12.40;99.90
7654;DHT22;3869;48.406;10.774;2022-09-17T14:54:20;12.40;99.90
7654;DHT22;3869;48.406;10.774;2022-09-17T14:56:54;12.40;99.90
7654;DHT22;3869;48.406;10.774;2022-09-17T14:59:28;12.30;99.90
7654;DHT22;3869;48.406;10.774;2022-09-17T15:01:59;12.20;99.90
7654;DHT22;3869;48.406;10.774;2022-09-17T15:04:28;12.20;99.90
7654;DHT22;3869;48.406;10.774;2022-09-17T15:07:06;12.20;99.90
7654;DHT22;3869;48.406;10.774;2022-09-17T15:09:35;12.20;99.90
7654;DHT22;3869;48.406;10.774;2022-09-17T15:12:04;12.20;99.90
7654;DHT22;3869;48.406;10.774;2022-09-17T15:14:35;12.00;99.90
7654;DHT22;3869;48.406;10.774;2022-09-17T15:17:05;11.90;99.90
7654;DHT22;3869;48.406;10.774;2022-09-17T15:19:37;11.60;99.90
7654;DHT22;3869;48.406;10.774;2022-09-17T15:22:08;11.40;99.90
7654;DHT22;3869;48.406;10.774;2022-09-17T15:24:41;11.30;99.90
7654;DHT22;3869;48.406;10.774;2022-09-17T15:27:13;11.10;99.90
7654;DHT22;3869;48.406;10.774;2022-09-17T15:29:48;11.10;99.90
7654;DHT22;3869;48.406;10.774;2022-09-17T15:32:17;11.20;99.90
7654;DHT22;3869;48.406;10.774;2022-09-17T15:35:16;11.10;99.90
7654;DHT22;3869;48.406;10.774;2022-09-17T15:37:45;11.20;99.90
7654;DHT22;3869;48.406;10.774;2022-09-17T15:40:36;11.20;99.90
7654;DHT22;3869;48.406;10.774;2022-09-17T15:43:15;11.10;99.90
7654;DHT22;3869;48.406;10.774;2022-09-17T15:45:44;11.10;99.90
7654;DHT22;3869;48.406;10.774;2022-09-17T15:48:21;11.00;99.90
7654;DHT22;3869;48.406;10.774;2022-09-17T15:50:53;11.00;99.90
7654;DHT22;3869;48.406;10.774;2022-09-17T15:53:23;10.90;99.90
7654;DHT22;3869;48.406;10.774;2022-09-17T15:56:00;10.90;99.90
7654;DHT22;3869;48.406;10.774;2022-09-17T15:58:31;10.90;99.90
7654;DHT22;3869;48.406;10.774;2022-09-17T16:04:27;10.90;99.90
7654;DHT22;3869;48.406;10.774;2022-09-17T16:07:02;10.90;99.90
7654;DHT22;3869;48.406;10.774;2022-09-17T16:09:46;10.90;99.90
7654;DHT22;3869;48.406;10.774;2022-09-17T16:12:16;10.90;99.90
7654;DHT22;3869;48.406;10.774;2022-09-17T16:14:46;10.90;99.90
7654;DHT22;3869;48.406;10.774;2022-09-17T16:17:33;10.90;99.90
7654;DHT22;3869;48.406;10.774;2022-09-17T16:20:07;10.90;99.90
7654;DHT22;3869;48.406;10.774;2022-09-17T16:22:37;10.90;99.90
7654;DHT22;3869;48.406;10.774;2022-09-17T16:25:06;10.90;99.90
7654;DHT22;3869;48.406;10.774;2022-09-17T16:27:46;10.90;99.90
7654;DHT22;3869;48.406;10.774;2022-09-17T16:30:17;10.90;99.90
7654;DHT22;3869;48.406;10.774;2022-09-17T16:32:45;10.90;99.90
7654;DHT22;3869;48.406;10.774;2022-09-17T16:35:14;10.90;99.90
7654;DHT22;3869;48.406;10.774;2022-09-17T16:37:47;10.90;99.90
7654;DHT22;3869;48.406;10.774;2022-09-17T16:40:16;10.90;99.90
7654;DHT22;3869;48.406;10.774;2022-09-17T16:42:44;10.80;99.90
7654;DHT22;3869;48.406;10.774;2022-09-17T16:45:12;10.80;99.90
7654;DHT22;3869;48.406;10.774;2022-09-17T16:47:41;10.70;99.90